sensor_id;sensor_type;location;lat;lon;timestamp;P1;durP1;ratioP1;P2;durP2;ratioP2
8407;SDS011;4241;48.452;9.216;2023-04-03T00:00:51;343.73;;;102.57;;
8407;SDS011;4241;48.452;9.216;2023-04-03T00:03:19;341.53;;;101.43;;
8407;SDS011;4241;48.452;9.216;2023-04-03T00:05:46;343.90;;;102.43;;
8407;SDS011;4241;48.452;9.216;2023-04-03T00:08:13;344.00;;;102.90;;
8407;SDS011;4241;48.452;9.216;2023-04-03T00:10:40;345.77;;;103.07;;
8407;SDS011;4241;48.452;9.216;2023-04-03T00:13:07;344.00;;;102.80;;
8407;SDS011;4241;48.452;9.216;2023-04-03T00:15:35;355.27;;;108.50;;
8407;SDS011;4241;48.452;9.216;2023-04-03T00:18:03;342.97;;;102.53;;
8407;SDS011;4241;48.452;9.216;2023-04-03T00:20:32;342.70;;;102.33;;
8407;SDS011;4241;48.452;9.216;2023-04-03T00:22:59;350.13;;;105.40;;
8407;SDS011;4241;48.452;9.216;2023-04-03T00:25:26;351.30;;;108.37;;
8407;SDS011;4241;48.452;9.216;2023-04-03T00:27:53;339.43;;;101.20;;
8407;SDS011;4241;48.452;9.216;2023-04-03T00:30:20;341.07;;;102.17;;
8407;SDS011;4241;48.452;9.216;2023-04-03T00:32:48;341.63;;;102.47;;
8407;SDS011;4241;48.452;9.216;2023-04-03T00:35:15;342.77;;;103.63;;
8407;SDS011;4241;48.452;9.216;2023-04-03T00:37:44;338.90;;;101.83;;
8407;SDS011;4241;48.452;9.216;2023-04-03T00:40:12;339.83;;;102.30;;
8407;SDS011;4241;48.452;9.216;2023-04-03T00:42:40;337.00;;;101.17;;
8407;SDS011;4241;48.452;9.216;2023-04-03T00:45:24;336.70;;;101.00;;
8407;SDS011;4241;48.452;9.216;2023-04-03T00:48:00;333.83;;;100.93;;
8407;SDS011;4241;48.452;9.216;2023-04-03T00:50:30;332.97;;;99.73;;
8407;SDS011;4241;48.452;9.216;2023-04-03T00:53:02;335.67;;;100.80;;
8407;SDS011;4241;48.452;9.216;2023-04-03T00:55:30;342.73;;;105.37;;
8407;SDS011;4241;48.452;9.216;2023-04-03T00:57:58;334.33;;;100.70;;
8407;SDS011;4241;48.452;9.216;2023-04-03T01:00:26;337.83;;;101.27;;
8407;SDS011;4241;48.452;9.216;2023-04-03T01:02:53;337.37;;;101.07;;
8407;SDS011;4241;48.452;9.216;2023-04-03T01:05:20;347.00;;;105.73;;
8407;SDS011;4241;48.452;9.216;2023-04-03T01:07:48;341.00;;;102.33;;
8407;SDS011;4241;48.452;9.216;2023-04-03T01:10:18;341.03;;;101.87;;
8407;SDS011;4241;48.452;9.216;2023-04-03T01:12:47;338.77;;;101.37;;
8407;SDS011;4241;48.452;9.216;2023-04-03T01:15:16;337.67;;;101.10;;
8407;SDS011;4241;48.452;9.216;2023-04-03T01:17:45;341.27;;;101.93;;
8407;SDS011;4241;48.452;9.216;2023-04-03T01:20:22;339.43;;;101.27;;
8407;SDS011;4241;48.452;9.216;2023-04-03T01:23:12;340.20;;;103.00;;
8407;SDS011;4241;48.452;9.216;2023-04-03T01:25:59;332.07;;;99.63;;
8407;SDS011;4241;48.452;9.216;2023-04-03T01:28:26;335.53;;;100.23;;
8407;SDS011;4241;48.452;9.216;2023-04-03T01:30:57;334.93;;;100.57;;
8407;SDS011;4241;48.452;9.216;2023-04-03T01:33:31;335.73;;;100.87;;
8407;SDS011;4241;48.452;9.216;2023-04-03T01:35:58;332.80;;;99.80;;
8407;SDS011;4241;48.452;9.216;2023-04-03T01:38:25;337.03;;;102.80;;
8407;SDS011;4241;48.452;9.216;2023-04-03T01:40:52;333.33;;;100.30;;
8407;SDS011;4241;48.452;9.216;2023-04-03T01:43:18;334.20;;;101.20;;
8407;SDS011;4241;48.452;9.216;2023-04-03T01:45:45;336.50;;;100.97;;
8407;SDS011;4241;48.452;9.216;2023-04-03T01:48:14;332.80;;;100.27;;
8407;SDS011;4241;48.452;9.216;2023-04-03T01:50:42;336.37;;;101.80;;
8407;SDS011;4241;48.452;9.216;2023-04-03T01:53:09;335.93;;;100.90;;
8407;SDS011;4241;48.452;9.216;2023-04-03T01:55:36;343.17;;;105.03;;
8407;SDS011;4241;48.452;9.216;2023-04-03T01:58:03;332.83;;;100.30;;
8407;SDS011;4241;48.452;9.216;2023-04-03T02:00:30;335.90;;;101.10;;
8407;SDS011;4241;48.452;9.216;2023-04-03T02:02:57;333.50;;;99.83;;
8407;SDS011;4241;48.452;9.216;2023-04-03T02:05:23;339.13;;;104.30;;
8407;SDS011;4241;48.452;9.216;2023-04-03T02:07:52;328.40;;;98.90;;
8407;SDS011;4241;48.452;9.216;2023-04-03T02:10:18;330.53;;;99.67;;
8407;SDS011;4241;48.452;9.216;2023-04-03T02:12:45;330.40;;;99.77;;
8407;SDS011;4241;48.452;9.216;2023-04-03T02:15:12;330.37;;;99.47;;
8407;SDS011;4241;48.452;9.216;2023-04-03T02:17:39;331.33;;;100.87;;
8407;SDS011;4241;48.452;9.216;2023-04-03T02:20:06;326.73;;;98.43;;
8407;SDS011;4241;48.452;9.216;2023-04-03T02:22:34;329.90;;;99.33;;
8407;SDS011;4241;48.452;9.216;2023-04-03T02:25:02;330.63;;;100.43;;
8407;SDS011;4241;48.452;9.216;2023-04-03T02:27:29;330.27;;;99.80;;
8407;SDS011;4241;48.452;9.216;2023-04-03T02:29:56;332.07;;;100.70;;
8407;SDS011;4241;48.452;9.216;2023-04-03T02:32:23;330.00;;;99.53;;
8407;SDS011;4241;48.452;9.216;2023-04-03T02:34:50;327.50;;;98.37;;
8407;SDS011;4241;48.452;9.216;2023-04-03T02:37:17;331.80;;;100.20;;
8407;SDS011;4241;48.452;9.216;2023-04-03T02:39:43;329.83;;;98.70;;
8407;SDS011;4241;48.452;9.216;2023-04-03T02:42:11;330.93;;;99.60;;
8407;SDS011;4241;48.452;9.216;2023-04-03T02:44:38;330.47;;;99.17;;
8407;SDS011;4241;48.452;9.216;2023-04-03T02:47:05;330.70;;;99.83;;
8407;SDS011;4241;48.452;9.216;2023-04-03T02:49:32;330.80;;;99.27;;
8407;SDS011;4241;48.452;9.216;2023-04-03T02:51:59;333.67;;;100.50;;
8407;SDS011;4241;48.452;9.216;2023-04-03T02:54:25;331.37;;;99.50;;
8407;SDS011;4241;48.452;9.216;2023-04-03T02:56:55;326.40;;;97.90;;
8407;SDS011;4241;48.452;9.216;2023-04-03T02:59:24;331.43;;;99.97;;
8407;SDS011;4241;48.452;9.216;2023-04-03T03:01:51;331.57;;;99.53;;
8407;SDS011;4241;48.452;9.216;2023-04-03T03:04:17;331.50;;;99.80;;
8407;SDS011;4241;48.452;9.216;2023-04-03T03:06:44;332.77;;;100.53;;
8407;SDS011;4241;48.452;9.216;2023-04-03T03:09:11;329.53;;;98.90;;
8407;SDS011;4241;48.452;9.216;2023-04-03T03:11:38;332.47;;;99.90;;
8407;SDS011;4241;48.452;9.216;2023-04-03T03:14:05;330.27;;;100.13;;
8407;SDS011;4241;48.452;9.216;2023-04-03T03:16:34;330.53;;;99.27;;
8407;SDS011;4241;48.452;9.216;2023-04-03T03:19:00;333.87;;;100.27;;
8407;SDS011;4241;48.452;9.216;2023-04-03T03:21:27;331.27;;;100.33;;
8407;SDS011;4241;48.452;9.216;2023-04-03T03:23:54;328.03;;;98.23;;
8407;SDS011;4241;48.452;9.216;2023-04-03T03:26:21;334.03;;;100.20;;
8407;SDS011;4241;48.452;9.216;2023-04-03T03:28:48;333.07;;;100.27;;
8407;SDS011;4241;48.452;9.216;2023-04-03T03:31:14;331.93;;;100.27;;
8407;SDS011;4241;48.452;9.216;2023-04-03T03:33:42;331.70;;;100.23;;
8407;SDS011;4241;48.452;9.216;2023-04-03T03:36:09;332.37;;;100.20;;
8407;SDS011;4241;48.452;9.216;2023-04-03T03:38:36;330.50;;;99.27;;
8407;SDS011;4241;48.452;9.216;2023-04-03T03:41:03;330.07;;;99.70;;
8407;SDS011;4241;48.452;9.216;2023-04-03T03:43:30;328.67;;;99.77;;
8407;SDS011;4241;48.452;9.216;2023-04-03T03:45:57;329.00;;;99.17;;
8407;SDS011;4241;48.452;9.216;2023-04-03T03:48:24;328.23;;;99.17;;
8407;SDS011;4241;48.452;9.216;2023-04-03T03:50:52;330.23;;;101.37;;
8407;SDS011;4241;48.452;9.216;2023-04-03T03:53:19;325.57;;;97.90;;
8407;SDS011;4241;48.452;9.216;2023-04-03T03:55:46;325.67;;;97.90;;
8407;SDS011;4241;48.452;9.216;2023-04-03T03:58:12;329.60;;;100.67;;
8407;SDS011;4241;48.452;9.216;2023-04-03T04:00:39;324.77;;;97.10;;
8407;SDS011;4241;48.452;9.216;2023-04-03T04:03:06;330.03;;;99.40;;
8407;SDS011;4241;48.452;9.216;2023-04-03T04:05:33;339.63;;;104.73;;
8407;SDS011;4241;48.452;9.216;2023-04-03T04:08:01;330.53;;;99.80;;
8407;SDS011;4241;48.452;9.216;2023-04-03T04:10:28;331.87;;;100.00;;
8407;SDS011;4241;48.452;9.216;2023-04-03T04:12:54;332.03;;;101.07;;
8407;SDS011;4241;48.452;9.216;2023-04-03T04:15:21;335.30;;;102.70;;
8407;SDS011;4241;48.452;9.216;2023-04-03T04:17:50;327.27;;;99.07;;
8407;SDS011;4241;48.452;9.216;2023-04-03T04:20:17;326.57;;;99.27;;
8407;SDS011;4241;48.452;9.216;2023-04-03T04:22:44;343.87;;;110.23;;
8407;SDS011;4241;48.452;9.216;2023-04-03T04:25:12;324.30;;;98.67;;
8407;SDS011;4241;48.452;9.216;2023-04-03T04:27:38;321.40;;;97.43;;
8407;SDS011;4241;48.452;9.216;2023-04-03T04:30:06;318.80;;;97.10;;
8407;SDS011;4241;48.452;9.216;2023-04-03T04:32:33;318.13;;;96.80;;
8407;SDS011;4241;48.452;9.216;2023-04-03T04:35:00;320.67;;;98.37;;
8407;SDS011;4241;48.452;9.216;2023-04-03T04:37:27;318.97;;;98.30;;
8407;SDS011;4241;48.452;9.216;2023-04-03T04:39:54;319.27;;;97.23;;
8407;SDS011;4241;48.452;9.216;2023-04-03T04:42:22;317.10;;;96.77;;
8407;SDS011;4241;48.452;9.216;2023-04-03T04:44:49;319.63;;;96.93;;
8407;SDS011;4241;48.452;9.216;2023-04-03T04:47:16;321.77;;;97.70;;
8407;SDS011;4241;48.452;9.216;2023-04-03T04:49:42;320.47;;;97.73;;
8407;SDS011;4241;48.452;9.216;2023-04-03T04:52:13;326.23;;;99.60;;
8407;SDS011;4241;48.452;9.216;2023-04-03T04:54:40;324.00;;;97.97;;
8407;SDS011;4241;48.452;9.216;2023-04-03T04:57:07;325.77;;;98.93;;
8407;SDS011;4241;48.452;9.216;2023-04-03T04:59:35;320.40;;;97.50;;
8407;SDS011;4241;48.452;9.216;2023-04-03T05:02:02;321.87;;;97.97;;
8407;SDS011;4241;48.452;9.216;2023-04-03T05:04:29;324.83;;;99.30;;
8407;SDS011;4241;48.452;9.216;2023-04-03T05:06:56;322.80;;;97.13;;
8407;SDS011;4241;48.452;9.216;2023-04-03T05:09:22;323.83;;;98.13;;
8407;SDS011;4241;48.452;9.216;2023-04-03T05:11:49;321.93;;;98.10;;
8407;SDS011;4241;48.452;9.216;2023-04-03T05:14:16;318.43;;;96.53;;
8407;SDS011;4241;48.452;9.216;2023-04-03T05:16:44;320.83;;;97.90;;
8407;SDS011;4241;48.452;9.216;2023-04-03T05:19:12;319.70;;;96.87;;
8407;SDS011;4241;48.452;9.216;2023-04-03T05:21:39;319.67;;;97.07;;
8407;SDS011;4241;48.452;9.216;2023-04-03T05:24:06;325.10;;;99.33;;
8407;SDS011;4241;48.452;9.216;2023-04-03T05:26:34;323.10;;;97.83;;
8407;SDS011;4241;48.452;9.216;2023-04-03T05:29:01;324.70;;;98.47;;
8407;SDS011;4241;48.452;9.216;2023-04-03T05:31:28;321.87;;;98.07;;
8407;SDS011;4241;48.452;9.216;2023-04-03T05:33:56;326.53;;;99.37;;
8407;SDS011;4241;48.452;9.216;2023-04-03T05:36:23;321.67;;;97.83;;
8407;SDS011;4241;48.452;9.216;2023-04-03T05:38:51;323.07;;;97.47;;
8407;SDS011;4241;48.452;9.216;2023-04-03T05:41:18;329.23;;;99.57;;
8407;SDS011;4241;48.452;9.216;2023-04-03T05:43:45;323.97;;;98.50;;
8407;SDS011;4241;48.452;9.216;2023-04-03T05:46:13;326.93;;;99.53;;
8407;SDS011;4241;48.452;9.216;2023-04-03T05:48:41;326.87;;;99.10;;
8407;SDS011;4241;48.452;9.216;2023-04-03T05:51:12;326.47;;;99.23;;
8407;SDS011;4241;48.452;9.216;2023-04-03T05:53:42;320.23;;;97.43;;
8407;SDS011;4241;48.452;9.216;2023-04-03T05:56:10;325.27;;;100.00;;
8407;SDS011;4241;48.452;9.216;2023-04-03T05:58:37;325.03;;;98.97;;
8407;SDS011;4241;48.452;9.216;2023-04-03T06:01:04;326.20;;;99.37;;
8407;SDS011;4241;48.452;9.216;2023-04-03T06:03:31;327.70;;;99.57;;
8407;SDS011;4241;48.452;9.216;2023-04-03T06:05:58;327.67;;;99.03;;
8407;SDS011;4241;48.452;9.216;2023-04-03T06:08:26;328.10;;;99.30;;
8407;SDS011;4241;48.452;9.216;2023-04-03T06:10:53;334.03;;;101.90;;
8407;SDS011;4241;48.452;9.216;2023-04-03T06:13:20;327.87;;;98.47;;
8407;SDS011;4241;48.452;9.216;2023-04-03T06:15:47;331.07;;;100.10;;
8407;SDS011;4241;48.452;9.216;2023-04-03T06:18:13;330.83;;;100.33;;
8407;SDS011;4241;48.452;9.216;2023-04-03T06:20:40;330.13;;;98.77;;
8407;SDS011;4241;48.452;9.216;2023-04-03T06:23:07;337.30;;;102.33;;
8407;SDS011;4241;48.452;9.216;2023-04-03T06:25:36;336.27;;;102.17;;
8407;SDS011;4241;48.452;9.216;2023-04-03T06:28:03;335.57;;;101.17;;
8407;SDS011;4241;48.452;9.216;2023-04-03T06:30:30;342.67;;;104.03;;
8407;SDS011;4241;48.452;9.216;2023-04-03T06:32:57;334.60;;;100.47;;
8407;SDS011;4241;48.452;9.216;2023-04-03T06:35:24;344.10;;;105.00;;
8407;SDS011;4241;48.452;9.216;2023-04-03T06:37:52;341.47;;;102.43;;
8407;SDS011;4241;48.452;9.216;2023-04-03T06:40:19;343.93;;;103.20;;
8407;SDS011;4241;48.452;9.216;2023-04-03T06:42:50;342.53;;;103.03;;
8407;SDS011;4241;48.452;9.216;2023-04-03T06:45:17;346.37;;;105.60;;
8407;SDS011;4241;48.452;9.216;2023-04-03T06:47:44;341.43;;;103.33;;
8407;SDS011;4241;48.452;9.216;2023-04-03T06:50:11;338.83;;;101.90;;
8407;SDS011;4241;48.452;9.216;2023-04-03T06:52:39;339.63;;;100.93;;
8407;SDS011;4241;48.452;9.216;2023-04-03T06:55:07;345.70;;;104.00;;
8407;SDS011;4241;48.452;9.216;2023-04-03T06:57:34;341.27;;;102.17;;
8407;SDS011;4241;48.452;9.216;2023-04-03T07:00:03;341.60;;;103.27;;
8407;SDS011;4241;48.452;9.216;2023-04-03T07:02:31;339.67;;;102.23;;
8407;SDS011;4241;48.452;9.216;2023-04-03T07:04:58;340.90;;;102.40;;
8407;SDS011;4241;48.452;9.216;2023-04-03T07:07:25;343.07;;;103.03;;
8407;SDS011;4241;48.452;9.216;2023-04-03T07:09:52;348.57;;;104.77;;
8407;SDS011;4241;48.452;9.216;2023-04-03T07:12:19;344.43;;;104.17;;
8407;SDS011;4241;48.452;9.216;2023-04-03T07:14:46;347.83;;;104.10;;
8407;SDS011;4241;48.452;9.216;2023-04-03T07:17:14;351.10;;;105.67;;
8407;SDS011;4241;48.452;9.216;2023-04-03T07:19:41;352.50;;;105.57;;
8407;SDS011;4241;48.452;9.216;2023-04-03T07:22:07;350.97;;;104.83;;
8407;SDS011;4241;48.452;9.216;2023-04-03T07:24:36;351.03;;;104.67;;
8407;SDS011;4241;48.452;9.216;2023-04-03T07:27:03;353.10;;;106.10;;
8407;SDS011;4241;48.452;9.216;2023-04-03T07:29:30;362.83;;;109.77;;
8407;SDS011;4241;48.452;9.216;2023-04-03T07:31:57;355.13;;;106.33;;
8407;SDS011;4241;48.452;9.216;2023-04-03T07:34:32;349.83;;;104.53;;
8407;SDS011;4241;48.452;9.216;2023-04-03T07:36:59;352.13;;;106.27;;
8407;SDS011;4241;48.452;9.216;2023-04-03T07:39:26;352.07;;;105.90;;
8407;SDS011;4241;48.452;9.216;2023-04-03T07:41:53;350.17;;;105.10;;
8407;SDS011;4241;48.452;9.216;2023-04-03T07:44:20;349.13;;;104.83;;
8407;SDS011;4241;48.452;9.216;2023-04-03T07:46:47;351.63;;;105.67;;
8407;SDS011;4241;48.452;9.216;2023-04-03T07:49:15;351.20;;;105.47;;
8407;SDS011;4241;48.452;9.216;2023-04-03T07:51:44;352.23;;;104.67;;
8407;SDS011;4241;48.452;9.216;2023-04-03T07:54:11;356.83;;;107.17;;
8407;SDS011;4241;48.452;9.216;2023-04-03T07:56:38;359.30;;;107.57;;
8407;SDS011;4241;48.452;9.216;2023-04-03T07:59:05;359.23;;;107.77;;
8407;SDS011;4241;48.452;9.216;2023-04-03T08:01:32;356.13;;;106.27;;
8407;SDS011;4241;48.452;9.216;2023-04-03T08:03:59;353.40;;;105.00;;
8407;SDS011;4241;48.452;9.216;2023-04-03T08:06:26;349.93;;;103.90;;
8407;SDS011;4241;48.452;9.216;2023-04-03T08:08:55;358.17;;;107.47;;
8407;SDS011;4241;48.452;9.216;2023-04-03T08:11:22;353.23;;;106.00;;
8407;SDS011;4241;48.452;9.216;2023-04-03T08:13:51;352.37;;;105.60;;
8407;SDS011;4241;48.452;9.216;2023-04-03T08:16:19;358.57;;;106.57;;
8407;SDS011;4241;48.452;9.216;2023-04-03T08:18:47;358.90;;;107.17;;
8407;SDS011;4241;48.452;9.216;2023-04-03T08:21:14;363.00;;;108.27;;
8407;SDS011;4241;48.452;9.216;2023-04-03T08:23:41;360.80;;;107.07;;
8407;SDS011;4241;48.452;9.216;2023-04-03T08:26:10;357.43;;;106.40;;
8407;SDS011;4241;48.452;9.216;2023-04-03T08:28:40;357.33;;;106.30;;
8407;SDS011;4241;48.452;9.216;2023-04-03T08:31:09;367.20;;;111.13;;
8407;SDS011;4241;48.452;9.216;2023-04-03T08:33:38;358.17;;;106.37;;
8407;SDS011;4241;48.452;9.216;2023-04-03T08:36:07;358.47;;;105.57;;
8407;SDS011;4241;48.452;9.216;2023-04-03T08:38:42;359.53;;;107.47;;
8407;SDS011;4241;48.452;9.216;2023-04-03T08:41:14;359.07;;;106.87;;
8407;SDS011;4241;48.452;9.216;2023-04-03T08:43:46;359.63;;;106.70;;
8407;SDS011;4241;48.452;9.216;2023-04-03T08:46:22;371.70;;;111.37;;
8407;SDS011;4241;48.452;9.216;2023-04-03T08:48:54;362.07;;;107.17;;
8407;SDS011;4241;48.452;9.216;2023-04-03T08:51:25;367.70;;;109.37;;
8407;SDS011;4241;48.452;9.216;2023-04-03T08:54:03;363.70;;;109.07;;
8407;SDS011;4241;48.452;9.216;2023-04-03T08:56:33;360.07;;;107.50;;
8407;SDS011;4241;48.452;9.216;2023-04-03T08:59:01;357.77;;;106.43;;
8407;SDS011;4241;48.452;9.216;2023-04-03T09:01:33;355.93;;;106.77;;
8407;SDS011;4241;48.452;9.216;2023-04-03T09:04:02;357.03;;;106.53;;
8407;SDS011;4241;48.452;9.216;2023-04-03T09:06:35;360.27;;;108.10;;
8407;SDS011;4241;48.452;9.216;2023-04-03T09:09:09;361.87;;;107.77;;
8407;SDS011;4241;48.452;9.216;2023-04-03T09:11:44;361.60;;;107.17;;
8407;SDS011;4241;48.452;9.216;2023-04-03T09:14:19;366.80;;;109.70;;
8407;SDS011;4241;48.452;9.216;2023-04-03T09:16:53;368.97;;;109.93;;
8407;SDS011;4241;48.452;9.216;2023-04-03T09:19:23;369.40;;;109.33;;
8407;SDS011;4241;48.452;9.216;2023-04-03T09:22:00;369.23;;;109.83;;
8407;SDS011;4241;48.452;9.216;2023-04-03T09:24:35;372.73;;;110.47;;
8407;SDS011;4241;48.452;9.216;2023-04-03T09:27:04;379.40;;;112.97;;
8407;SDS011;4241;48.452;9.216;2023-04-03T09:29:33;383.20;;;115.37;;
8407;SDS011;4241;48.452;9.216;2023-04-03T09:32:16;376.33;;;110.70;;
8407;SDS011;4241;48.452;9.216;2023-04-03T09:34:47;380.87;;;112.70;;
8407;SDS011;4241;48.452;9.216;2023-04-03T09:37:32;382.20;;;113.60;;
8407;SDS011;4241;48.452;9.216;2023-04-03T09:40:04;381.60;;;112.90;;
8407;SDS011;4241;48.452;9.216;2023-04-03T09:42:32;386.47;;;115.30;;
8407;SDS011;4241;48.452;9.216;2023-04-03T09:45:18;386.27;;;114.57;;
8407;SDS011;4241;48.452;9.216;2023-04-03T09:47:49;391.30;;;116.23;;
8407;SDS011;4241;48.452;9.216;2023-04-03T09:50:30;388.37;;;114.97;;
8407;SDS011;4241;48.452;9.216;2023-04-03T09:52:56;387.27;;;114.93;;
8407;SDS011;4241;48.452;9.216;2023-04-03T09:55:25;396.17;;;123.10;;
8407;SDS011;4241;48.452;9.216;2023-04-03T09:57:54;383.70;;;113.53;;
8407;SDS011;4241;48.452;9.216;2023-04-03T10:00:23;382.50;;;113.43;;
8407;SDS011;4241;48.452;9.216;2023-04-03T10:02:52;378.37;;;111.27;;
8407;SDS011;4241;48.452;9.216;2023-04-03T10:05:28;382.93;;;115.93;;
8407;SDS011;4241;48.452;9.216;2023-04-03T10:08:07;378.97;;;113.03;;
8407;SDS011;4241;48.452;9.216;2023-04-03T10:10:38;385.53;;;114.37;;
8407;SDS011;4241;48.452;9.216;2023-04-03T10:13:06;389.13;;;114.87;;
8407;SDS011;4241;48.452;9.216;2023-04-03T10:15:39;396.23;;;118.73;;
8407;SDS011;4241;48.452;9.216;2023-04-03T10:18:14;392.33;;;116.63;;
8407;SDS011;4241;48.452;9.216;2023-04-03T10:20:52;388.03;;;115.40;;
8407;SDS011;4241;48.452;9.216;2023-04-03T10:23:24;392.60;;;116.90;;
8407;SDS011;4241;48.452;9.216;2023-04-03T10:25:59;393.53;;;116.77;;
8407;SDS011;4241;48.452;9.216;2023-04-03T10:28:37;395.20;;;115.97;;
8407;SDS011;4241;48.452;9.216;2023-04-03T10:31:13;398.17;;;118.03;;
8407;SDS011;4241;48.452;9.216;2023-04-03T10:33:46;394.97;;;117.50;;
8407;SDS011;4241;48.452;9.216;2023-04-03T10:36:25;392.87;;;115.40;;
8407;SDS011;4241;48.452;9.216;2023-04-03T10:39:01;389.40;;;114.30;;
8407;SDS011;4241;48.452;9.216;2023-04-03T10:41:37;388.03;;;114.97;;
8407;SDS011;4241;48.452;9.216;2023-04-03T10:44:16;385.63;;;114.60;;
8407;SDS011;4241;48.452;9.216;2023-04-03T10:46:55;379.93;;;112.07;;
8407;SDS011;4241;48.452;9.216;2023-04-03T10:49:31;381.40;;;113.83;;
8407;SDS011;4241;48.452;9.216;2023-04-03T10:52:10;376.63;;;111.80;;
8407;SDS011;4241;48.452;9.216;2023-04-03T10:54:44;377.27;;;112.40;;
8407;SDS011;4241;48.452;9.216;2023-04-03T10:57:18;378.90;;;112.40;;
8407;SDS011;4241;48.452;9.216;2023-04-03T10:59:46;375.90;;;111.47;;
8407;SDS011;4241;48.452;9.216;2023-04-03T11:02:17;382.03;;;114.27;;
8407;SDS011;4241;48.452;9.216;2023-04-03T11:04:50;379.67;;;112.77;;
8407;SDS011;4241;48.452;9.216;2023-04-03T11:07:20;379.83;;;112.80;;
8407;SDS011;4241;48.452;9.216;2023-04-03T11:09:49;381.83;;;113.37;;
8407;SDS011;4241;48.452;9.216;2023-04-03T11:12:23;384.33;;;116.10;;
8407;SDS011;4241;48.452;9.216;2023-04-03T11:14:53;379.93;;;113.20;;
8407;SDS011;4241;48.452;9.216;2023-04-03T11:17:26;377.40;;;111.43;;
8407;SDS011;4241;48.452;9.216;2023-04-03T11:20:00;378.87;;;112.80;;
8407;SDS011;4241;48.452;9.216;2023-04-03T11:22:32;380.70;;;112.90;;
8407;SDS011;4241;48.452;9.216;2023-04-03T11:25:04;379.50;;;111.90;;
8407;SDS011;4241;48.452;9.216;2023-04-03T11:27:42;382.30;;;113.93;;
8407;SDS011;4241;48.452;9.216;2023-04-03T11:30:14;380.80;;;113.20;;
8407;SDS011;4241;48.452;9.216;2023-04-03T11:32:49;382.60;;;115.23;;
8407;SDS011;4241;48.452;9.216;2023-04-03T11:35:24;386.53;;;119.60;;
8407;SDS011;4241;48.452;9.216;2023-04-03T11:37:53;376.87;;;111.77;;
8407;SDS011;4241;48.452;9.216;2023-04-03T11:40:21;375.63;;;111.37;;
8407;SDS011;4241;48.452;9.216;2023-04-03T11:42:53;378.70;;;112.07;;
8407;SDS011;4241;48.452;9.216;2023-04-03T11:45:33;383.40;;;117.37;;
8407;SDS011;4241;48.452;9.216;2023-04-03T11:48:04;373.07;;;110.73;;
8407;SDS011;4241;48.452;9.216;2023-04-03T11:50:39;379.63;;;113.50;;
8407;SDS011;4241;48.452;9.216;2023-04-03T11:53:29;377.13;;;111.70;;
8407;SDS011;4241;48.452;9.216;2023-04-03T11:56:00;372.37;;;111.10;;
8407;SDS011;4241;48.452;9.216;2023-04-03T11:58:30;377.37;;;111.93;;
8407;SDS011;4241;48.452;9.216;2023-04-03T12:01:00;375.87;;;112.10;;
8407;SDS011;4241;48.452;9.216;2023-04-03T12:12:28;388.97;;;115.27;;
8407;SDS011;4241;48.452;9.216;2023-04-03T12:15:22;396.80;;;118.47;;
8407;SDS011;4241;48.452;9.216;2023-04-03T12:21:17;388.57;;;116.90;;
8407;SDS011;4241;48.452;9.216;2023-04-03T12:24:02;391.13;;;116.97;;
8407;SDS011;4241;48.452;9.216;2023-04-03T12:26:36;388.50;;;115.83;;
8407;SDS011;4241;48.452;9.216;2023-04-03T12:29:13;388.57;;;115.37;;
8407;SDS011;4241;48.452;9.216;2023-04-03T12:31:48;387.37;;;115.70;;
8407;SDS011;4241;48.452;9.216;2023-04-03T12:34:27;382.30;;;113.77;;
8407;SDS011;4241;48.452;9.216;2023-04-03T12:37:15;380.03;;;112.67;;
8407;SDS011;4241;48.452;9.216;2023-04-03T12:39:53;381.47;;;112.67;;
8407;SDS011;4241;48.452;9.216;2023-04-03T12:45:39;386.17;;;118.03;;
8407;SDS011;4241;48.452;9.216;2023-04-03T12:48:11;381.13;;;112.97;;
8407;SDS011;4241;48.452;9.216;2023-04-03T12:50:41;380.67;;;113.10;;
8407;SDS011;4241;48.452;9.216;2023-04-03T12:53:11;379.27;;;112.47;;
8407;SDS011;4241;48.452;9.216;2023-04-03T12:55:42;382.87;;;114.67;;
8407;SDS011;4241;48.452;9.216;2023-04-03T12:58:16;387.03;;;116.03;;
8407;SDS011;4241;48.452;9.216;2023-04-03T13:00:51;384.77;;;112.87;;
8407;SDS011;4241;48.452;9.216;2023-04-03T13:03:27;386.83;;;114.33;;
8407;SDS011;4241;48.452;9.216;2023-04-03T13:05:55;383.43;;;113.43;;
8407;SDS011;4241;48.452;9.216;2023-04-03T13:08:25;382.13;;;113.60;;
8407;SDS011;4241;48.452;9.216;2023-04-03T13:10:54;384.53;;;113.80;;
8407;SDS011;4241;48.452;9.216;2023-04-03T13:13:25;381.97;;;113.17;;
8407;SDS011;4241;48.452;9.216;2023-04-03T13:15:52;380.73;;;112.87;;
8407;SDS011;4241;48.452;9.216;2023-04-03T13:18:23;383.47;;;113.70;;
8407;SDS011;4241;48.452;9.216;2023-04-03T13:20:53;382.90;;;113.77;;
8407;SDS011;4241;48.452;9.216;2023-04-03T13:23:25;376.20;;;110.80;;
8407;SDS011;4241;48.452;9.216;2023-04-03T13:25:53;379.20;;;112.17;;
8407;SDS011;4241;48.452;9.216;2023-04-03T13:28:22;381.37;;;113.67;;
8407;SDS011;4241;48.452;9.216;2023-04-03T13:30:55;381.80;;;114.07;;
8407;SDS011;4241;48.452;9.216;2023-04-03T13:33:30;380.13;;;112.67;;
8407;SDS011;4241;48.452;9.216;2023-04-03T13:36:00;378.67;;;112.07;;
8407;SDS011;4241;48.452;9.216;2023-04-03T13:38:30;380.20;;;113.63;;
8407;SDS011;4241;48.452;9.216;2023-04-03T13:40:59;377.57;;;112.20;;
8407;SDS011;4241;48.452;9.216;2023-04-03T13:43:30;375.70;;;111.33;;
8407;SDS011;4241;48.452;9.216;2023-04-03T13:46:04;372.70;;;110.40;;
8407;SDS011;4241;48.452;9.216;2023-04-03T13:48:49;374.67;;;110.70;;
8407;SDS011;4241;48.452;9.216;2023-04-03T13:51:18;378.57;;;112.30;;
8407;SDS011;4241;48.452;9.216;2023-04-03T13:53:48;381.70;;;113.03;;
8407;SDS011;4241;48.452;9.216;2023-04-03T13:56:18;380.00;;;111.40;;
8407;SDS011;4241;48.452;9.216;2023-04-03T13:58:53;379.57;;;112.43;;
8407;SDS011;4241;48.452;9.216;2023-04-03T14:01:25;379.53;;;112.80;;
8407;SDS011;4241;48.452;9.216;2023-04-03T14:04:00;377.17;;;111.03;;
8407;SDS011;4241;48.452;9.216;2023-04-03T14:06:36;377.93;;;111.97;;
8407;SDS011;4241;48.452;9.216;2023-04-03T14:09:03;381.63;;;113.17;;
8407;SDS011;4241;48.452;9.216;2023-04-03T14:11:30;383.27;;;113.43;;
8407;SDS011;4241;48.452;9.216;2023-04-03T14:13:57;388.90;;;113.57;;
8407;SDS011;4241;48.452;9.216;2023-04-03T14:16:28;394.13;;;116.30;;
8407;SDS011;4241;48.452;9.216;2023-04-03T14:18:57;392.30;;;114.73;;
8407;SDS011;4241;48.452;9.216;2023-04-03T14:21:25;393.57;;;116.60;;
8407;SDS011;4241;48.452;9.216;2023-04-03T14:23:52;395.10;;;116.97;;
8407;SDS011;4241;48.452;9.216;2023-04-03T14:26:20;401.17;;;121.93;;
8407;SDS011;4241;48.452;9.216;2023-04-03T14:28:50;396.83;;;119.23;;
8407;SDS011;4241;48.452;9.216;2023-04-03T14:31:18;395.47;;;116.17;;
8407;SDS011;4241;48.452;9.216;2023-04-03T14:33:46;396.17;;;117.40;;
8407;SDS011;4241;48.452;9.216;2023-04-03T14:36:15;395.67;;;117.03;;
8407;SDS011;4241;48.452;9.216;2023-04-03T14:38:44;395.87;;;117.20;;
8407;SDS011;4241;48.452;9.216;2023-04-03T14:41:12;392.77;;;116.73;;
8407;SDS011;4241;48.452;9.216;2023-04-03T14:43:40;395.80;;;117.97;;
8407;SDS011;4241;48.452;9.216;2023-04-03T14:46:10;393.30;;;117.27;;
8407;SDS011;4241;48.452;9.216;2023-04-03T14:48:40;398.57;;;118.27;;
8407;SDS011;4241;48.452;9.216;2023-04-03T14:51:08;399.43;;;118.97;;
8407;SDS011;4241;48.452;9.216;2023-04-03T14:53:37;400.43;;;119.17;;